AirNav   Everest Fuels
 
 1252 users online  

7Y9 Big Falls Municipal Airport
Big Falls, Minnesota, USA

GOING TO BIG FALLS?


FAA INFORMATION EFFECTIVE 30 JANUARY 2020

Location

FAA Identifier: 7Y9
Lat/Long: 48-12-01.8564N 093-45-44.5548W
48-12.030940N 093-45.742580W
48.2005157,-93.7623763
(estimated)
Elevation: 1232 ft. / 376 m (estimated)
Variation: 03E (1985)
From city: 3 miles NE of BIG FALLS, MN
Time zone: UTC -6 (UTC -5 during Daylight Saving Time)
Zip code: 56627

Airport Operations

Airport use: Open to the public
Activation date: 01/1951
Control tower: no
ARTCC: MINNEAPOLIS CENTER
FSS: PRINCETON FLIGHT SERVICE STATION
NOTAMs facility: PNM (NOTAM-D service available)
Attendance: UNATNDD
Wind indicator: lighted
Segmented circle: no
Lights: SS-SR

Airport Communications

CTAF: 122.9

Nearby radio navigation aids

VOR radial/distance  VOR name  Freq  Var
INLr207/26.1INTERNATIONAL FALLS VOR/D111.0006E

 
NDB name  Hdg/Dist  Freq  Var  ID
BIGFORK348/25.434502EFOZ ..-. --- --..
ORR285/37.734102EORB --- .-. -...

Airport Services

Parking: tiedowns
Airframe service: NONE
Powerplant service: NONE
Bottled oxygen: NONE
Bulk oxygen: NONE

Runway Information

Runway 3/21

Dimensions: 2850 x 100 ft. / 869 x 30 m
Surface: turf, in good condition
Runway edge markings: RY 03/21 MKD WITH YELLOW CONES.
RUNWAY 3  RUNWAY 21
Latitude: 48-11.925120N48-12.307860N
Longitude: 093-45.766500W093-45.361320W
Traffic pattern: leftleft
Displaced threshold: no785 ft.
Obstructions: 66 ft. trees, 653 ft. from runway, 171 ft. right of centerline, 9:1 slope to clear52 ft. trees, 226 ft. from runway, 132 ft. left of centerline, 4:1 slope to clear

Runway 11/29

Dimensions: 2602 x 200 ft. / 793 x 61 m
Surface: turf, in good condition
Runway edge lights: non-standard
NSTD LIRL DUE TO SPACING.
Runway edge markings: RY 11/29 MKD WITH YELLOW CONES.
RUNWAY 11  RUNWAY 29
Latitude: 48-12.046740N48-11.828633N
Longitude: 093-46.213800W093-45.663053W
Traffic pattern: leftleft
Obstructions: 71 ft. trees, 906 ft. from runway, 182 ft. right of centerline, 12:1 slope to clear80 ft. trees, 1716 ft. from runway, 83 ft. right of centerline, 21:1 slope to clear

Airport Ownership and Management from official FAA records

Ownership: Publicly-owned
Owner: CITY OF BIG FALLS
P.O. BOX 196
BIG FALLS, MN 56627
Phone 218-276-2282
Manager: TERRY BAIRD
P.O. BOX 196
BIG FALLS, MN 56627
Phone 218-556-4827

Airport Operational Statistics

Aircraft based on the field: 2
Single engine airplanes: 2
    
Aircraft operations: avg 33/month *
50% transient general aviation
50% local general aviation
* for 12-month period ending 31 July 2016

Additional Remarks

ARPT SFCS NOT PLOWED IN WINTER, CALL AIRPORT MANAGER (218) 556-4827, OR CHECK NOTAMS.
ULTRALIGHT TRAFFIC ON & INVOF ARPT.
FOR CD CTC MINNEAPOLIS ARTCC AT 651-463-5588.

Instrument Procedures

There are no published instrument procedures at 7Y9.

Some nearby airports with instrument procedures:

KFOZ - Bigfork Municipal Airport (25 nm S)
KINL - Falls International Airport-Einarson Field (26 nm NE)
KORB - Orr Regional Airport (38 nm E)
KBDE - Baudette International Airport (46 nm NW)
KCQM - Cook Municipal Airport (49 nm SE)
 
Loc | Ops | Rwys | IFR | FBO | Links
Com | Nav | Svcs | Stats | Notes
Area around 7Y9 (Big Falls Municipal Airport)
 
Road maps at: MapQuest Bing Google
 
Aerial photo
No photo
 
Sectional chart

 
Airport distance calculator
Flying to Big Falls Municipal Airport? Find the distance to fly.

From to 7Y9

Sunrise and sunset
Times for 19-Feb-2020
 Local
(UTC-6)
 Zulu
(UTC)
Morning civil twilight06:4412:44
Sunrise07:1613:16
Sunset17:4223:42
Evening civil twilight18:1400:14

Current date and time
Zulu (UTC)  19-Feb-2020 22:51:21
Local (UTC-6)  19-Feb-2020 16:51:21
 
METAR
KINL 
26nm NE 
192155Z AUTO 27008KT 10SM CLR M15/M25 A3055 RMK AO2 SLP388 T11501250
KFOZ 
26nm S 
192234Z AUTO 27004KT 10SM CLR M14/M24 A3060 RMK AO2
KVWU 
30nm W 
192231Z AUTO 27006KT 10SM CLR M17/M22 A3060 RMK AO2
KORB 
38nm E 
192234Z AUTO 30009KT 10SM CLR M15/M26 A3052 RMK AO2
KBDE 
47nm NW 
192153Z AUTO 31009KT 10SM CLR M16/M23 A3059 RMK AO2 SLP396 T11561233
KCDD 
48nm E 
192233Z AUTO 28004KT 10SM CLR M15/M26 A3058 RMK AO2
KCQM 
49nm SE 
192235Z AUTO 28008KT 10SM CLR M14/M24 A3053 RMK AO2
TAF
KINL 
26nm NE 
191836Z 1919/2018 29010KT P6SM SKC FM200100 29004KT P6SM SKC FM200800 24004KT P6SM SKC FM201200 22005KT P6SM SKC
NOTAMs
Click for the latest NOTAMs
NOTAMs are issued by the DoD/FAA and will open in a separate window not controlled by AirNav.

 

 
 

Would you like to see your business listed on this page?

 If your business provides an interesting product or service to pilots, flight crews, aircraft, or users of the Big Falls Municipal Airport, you should consider listing it here.  To start the listing process, click on the button below
 
Add a business
 

Other Pages about Big Falls Municipal Airport

Update a link
 
Copyright © AirNav, LLC. All rights reserved. Privacy Policy  Contact